sensor_id;sensor_type;location;lat;lon;timestamp;temperature;humidity
25320;DHT22;13256;49.012;8.610;2022-08-02T00:01:03;20.10;99.90
25320;DHT22;13256;49.012;8.610;2022-08-02T00:03:31;20.00;99.90
25320;DHT22;13256;49.012;8.610;2022-08-02T00:06:16;19.90;99.90
25320;DHT22;13256;49.012;8.610;2022-08-02T00:08:47;19.90;99.90
25320;DHT22;13256;49.012;8.610;2022-08-02T00:11:14;19.80;99.90
25320;DHT22;13256;49.012;8.610;2022-08-02T00:13:40;19.80;99.90
25320;DHT22;13256;49.012;8.610;2022-08-02T00:16:07;19.80;99.90
25320;DHT22;13256;49.012;8.610;2022-08-02T00:18:34;19.80;99.90
25320;DHT22;13256;49.012;8.610;2022-08-02T00:21:01;19.80;99.90
25320;DHT22;13256;49.012;8.610;2022-08-02T00:23:28;19.90;99.90
25320;DHT22;13256;49.012;8.610;2022-08-02T00:25:55;19.90;99.90
25320;DHT22;13256;49.012;8.610;2022-08-02T00:28:31;20.00;99.90
25320;DHT22;13256;49.012;8.610;2022-08-02T00:30:58;20.00;99.90
25320;DHT22;13256;49.012;8.610;2022-08-02T00:33:26;20.10;99.90
25320;DHT22;13256;49.012;8.610;2022-08-02T00:39:03;20.20;99.90
25320;DHT22;13256;49.012;8.610;2022-08-02T00:47:46;19.80;99.90
25320;DHT22;13256;49.012;8.610;2022-08-02T00:50:13;19.60;99.90
25320;DHT22;13256;49.012;8.610;2022-08-02T00:52:43;19.60;99.90
25320;DHT22;13256;49.012;8.610;2022-08-02T00:55:18;19.60;99.90
25320;DHT22;13256;49.012;8.610;2022-08-02T00:57:57;19.70;99.90
25320;DHT22;13256;49.012;8.610;2022-08-02T01:00:27;19.70;99.90
25320;DHT22;13256;49.012;8.610;2022-08-02T01:03:21;19.70;99.90
25320;DHT22;13256;49.012;8.610;2022-08-02T01:05:48;19.60;99.90
25320;DHT22;13256;49.012;8.610;2022-08-02T01:08:38;19.60;99.90
25320;DHT22;13256;49.012;8.610;2022-08-02T01:11:05;19.60;99.90
25320;DHT22;13256;49.012;8.610;2022-08-02T01:13:37;19.60;99.90
25320;DHT22;13256;49.012;8.610;2022-08-02T01:16:15;19.50;99.90
25320;DHT22;13256;49.012;8.610;2022-08-02T01:18:48;19.50;99.90
25320;DHT22;13256;49.012;8.610;2022-08-02T01:21:51;19.50;99.90
25320;DHT22;13256;49.012;8.610;2022-08-02T01:32:43;19.30;99.90
25320;DHT22;13256;49.012;8.610;2022-08-02T01:35:21;19.20;99.90
25320;DHT22;13256;49.012;8.610;2022-08-02T01:37:58;19.10;99.90
25320;DHT22;13256;49.012;8.610;2022-08-02T01:40:31;19.00;99.90
25320;DHT22;13256;49.012;8.610;2022-08-02T01:43:01;18.90;99.90
25320;DHT22;13256;49.012;8.610;2022-08-02T01:45:37;18.80;99.90
25320;DHT22;13256;49.012;8.610;2022-08-02T01:48:09;18.80;99.90
25320;DHT22;13256;49.012;8.610;2022-08-02T01:50:37;18.80;99.90
25320;DHT22;13256;49.012;8.610;2022-08-02T01:53:07;18.80;99.90
25320;DHT22;13256;49.012;8.610;2022-08-02T01:55:42;18.90;99.90
25320;DHT22;13256;49.012;8.610;2022-08-02T01:58:36;18.90;99.90
25320;DHT22;13256;49.012;8.610;2022-08-02T02:01:11;19.00;99.90
25320;DHT22;13256;49.012;8.610;2022-08-02T02:03:46;19.00;99.90
25320;DHT22;13256;49.012;8.610;2022-08-02T02:06:17;18.90;99.90
25320;DHT22;13256;49.012;8.610;2022-08-02T02:08:45;18.80;99.90
25320;DHT22;13256;49.012;8.610;2022-08-02T02:11:13;18.70;99.90
25320;DHT22;13256;49.012;8.610;2022-08-02T02:14:02;18.60;99.90
25320;DHT22;13256;49.012;8.610;2022-08-02T02:16:31;18.50;99.90
25320;DHT22;13256;49.012;8.610;2022-08-02T02:19:02;18.40;99.90
25320;DHT22;13256;49.012;8.610;2022-08-02T02:21:31;18.30;99.90
25320;DHT22;13256;49.012;8.610;2022-08-02T02:24:03;18.30;99.90
25320;DHT22;13256;49.012;8.610;2022-08-02T02:26:46;18.30;99.90
25320;DHT22;13256;49.012;8.610;2022-08-02T02:29:24;18.30;99.90
25320;DHT22;13256;49.012;8.610;2022-08-02T02:31:58;18.30;99.90
25320;DHT22;13256;49.012;8.610;2022-08-02T02:34:31;18.30;99.90
25320;DHT22;13256;49.012;8.610;2022-08-02T02:37:02;18.40;99.90
25320;DHT22;13256;49.012;8.610;2022-08-02T02:39:30;18.50;99.90
25320;DHT22;13256;49.012;8.610;2022-08-02T02:42:02;18.60;99.90
25320;DHT22;13256;49.012;8.610;2022-08-02T02:44:32;18.70;99.90
25320;DHT22;13256;49.012;8.610;2022-08-02T02:47:01;18.70;99.90
25320;DHT22;13256;49.012;8.610;2022-08-02T02:49:35;18.80;99.90
25320;DHT22;13256;49.012;8.610;2022-08-02T02:52:08;18.90;99.90
25320;DHT22;13256;49.012;8.610;2022-08-02T02:54:37;18.80;99.90
25320;DHT22;13256;49.012;8.610;2022-08-02T02:57:07;18.80;99.90
25320;DHT22;13256;49.012;8.610;2022-08-02T02:59:38;18.70;99.90
25320;DHT22;13256;49.012;8.610;2022-08-02T03:02:17;18.80;99.90
25320;DHT22;13256;49.012;8.610;2022-08-02T03:04:45;18.80;99.90
25320;DHT22;13256;49.012;8.610;2022-08-02T03:07:26;18.80;99.90
25320;DHT22;13256;49.012;8.610;2022-08-02T03:09:54;18.80;99.90
25320;DHT22;13256;49.012;8.610;2022-08-02T03:12:25;18.60;99.90
25320;DHT22;13256;49.012;8.610;2022-08-02T03:15:00;18.50;99.90
25320;DHT22;13256;49.012;8.610;2022-08-02T03:17:41;18.30;99.90
25320;DHT22;13256;49.012;8.610;2022-08-02T03:20:16;18.20;99.90
25320;DHT22;13256;49.012;8.610;2022-08-02T03:22:44;18.20;99.90
25320;DHT22;13256;49.012;8.610;2022-08-02T03:25:12;18.10;99.90
25320;DHT22;13256;49.012;8.610;2022-08-02T03:27:39;18.00;99.90
25320;DHT22;13256;49.012;8.610;2022-08-02T03:30:08;17.90;99.90
25320;DHT22;13256;49.012;8.610;2022-08-02T03:32:37;17.90;99.90
25320;DHT22;13256;49.012;8.610;2022-08-02T03:35:05;17.80;99.90
25320;DHT22;13256;49.012;8.610;2022-08-02T03:37:34;17.80;99.90
25320;DHT22;13256;49.012;8.610;2022-08-02T03:40:05;17.80;99.90
25320;DHT22;13256;49.012;8.610;2022-08-02T03:42:36;17.70;99.90
25320;DHT22;13256;49.012;8.610;2022-08-02T03:45:08;17.70;99.90
25320;DHT22;13256;49.012;8.610;2022-08-02T03:47:43;17.60;99.90
25320;DHT22;13256;49.012;8.610;2022-08-02T03:50:17;17.60;99.90
25320;DHT22;13256;49.012;8.610;2022-08-02T03:52:50;17.50;99.90
25320;DHT22;13256;49.012;8.610;2022-08-02T03:55:47;17.40;99.90
25320;DHT22;13256;49.012;8.610;2022-08-02T03:58:22;17.30;99.90
25320;DHT22;13256;49.012;8.610;2022-08-02T04:00:55;17.30;99.90
25320;DHT22;13256;49.012;8.610;2022-08-02T04:03:26;17.20;99.90
25320;DHT22;13256;49.012;8.610;2022-08-02T04:05:59;17.20;99.90
25320;DHT22;13256;49.012;8.610;2022-08-02T04:08:32;17.20;99.90
25320;DHT22;13256;49.012;8.610;2022-08-02T04:11:13;17.20;99.90
25320;DHT22;13256;49.012;8.610;2022-08-02T04:14:07;17.10;99.90
25320;DHT22;13256;49.012;8.610;2022-08-02T04:16:53;17.20;99.90
25320;DHT22;13256;49.012;8.610;2022-08-02T04:19:55;17.10;99.90
25320;DHT22;13256;49.012;8.610;2022-08-02T04:22:30;17.20;99.90
25320;DHT22;13256;49.012;8.610;2022-08-02T04:25:06;17.30;99.90
25320;DHT22;13256;49.012;8.610;2022-08-02T04:27:37;17.40;99.90
25320;DHT22;13256;49.012;8.610;2022-08-02T04:33:30;17.50;99.90
25320;DHT22;13256;49.012;8.610;2022-08-02T04:36:00;17.60;99.90
25320;DHT22;13256;49.012;8.610;2022-08-02T04:38:26;17.70;99.90
25320;DHT22;13256;49.012;8.610;2022-08-02T04:40:57;17.70;99.90
25320;DHT22;13256;49.012;8.610;2022-08-02T04:43:24;17.70;99.90
25320;DHT22;13256;49.012;8.610;2022-08-02T04:45:53;17.60;99.90
25320;DHT22;13256;49.012;8.610;2022-08-02T04:48:23;17.50;99.90
25320;DHT22;13256;49.012;8.610;2022-08-02T04:50:50;17.50;99.90
25320;DHT22;13256;49.012;8.610;2022-08-02T04:53:20;17.50;99.90
25320;DHT22;13256;49.012;8.610;2022-08-02T04:55:46;17.60;99.90
25320;DHT22;13256;49.012;8.610;2022-08-02T04:58:16;17.60;99.90
25320;DHT22;13256;49.012;8.610;2022-08-02T05:01:03;17.70;99.90
25320;DHT22;13256;49.012;8.610;2022-08-02T05:03:30;17.80;99.90
25320;DHT22;13256;49.012;8.610;2022-08-02T05:05:59;17.90;99.90
25320;DHT22;13256;49.012;8.610;2022-08-02T05:08:27;17.90;99.90
25320;DHT22;13256;49.012;8.610;2022-08-02T05:10:53;18.00;99.90
25320;DHT22;13256;49.012;8.610;2022-08-02T05:13:20;18.00;99.90
25320;DHT22;13256;49.012;8.610;2022-08-02T05:15:50;18.10;99.90
25320;DHT22;13256;49.012;8.610;2022-08-02T05:18:22;18.20;99.90
25320;DHT22;13256;49.012;8.610;2022-08-02T05:20:49;18.20;99.90
25320;DHT22;13256;49.012;8.610;2022-08-02T05:23:22;18.20;99.90
25320;DHT22;13256;49.012;8.610;2022-08-02T05:25:51;18.20;99.90
25320;DHT22;13256;49.012;8.610;2022-08-02T05:28:21;18.20;99.90
25320;DHT22;13256;49.012;8.610;2022-08-02T05:30:50;18.20;99.90
25320;DHT22;13256;49.012;8.610;2022-08-02T05:33:17;18.30;99.90
25320;DHT22;13256;49.012;8.610;2022-08-02T05:35:44;18.30;99.90
25320;DHT22;13256;49.012;8.610;2022-08-02T05:38:11;18.40;99.90
25320;DHT22;13256;49.012;8.610;2022-08-02T05:40:38;18.40;99.90
25320;DHT22;13256;49.012;8.610;2022-08-02T05:43:21;18.50;99.90
25320;DHT22;13256;49.012;8.610;2022-08-02T05:45:49;18.50;99.90
25320;DHT22;13256;49.012;8.610;2022-08-02T05:48:18;18.60;99.90
25320;DHT22;13256;49.012;8.610;2022-08-02T05:50:48;18.70;99.90
25320;DHT22;13256;49.012;8.610;2022-08-02T05:53:37;18.80;99.90
25320;DHT22;13256;49.012;8.610;2022-08-02T05:56:24;18.90;99.90
25320;DHT22;13256;49.012;8.610;2022-08-02T05:59:12;19.00;99.90
25320;DHT22;13256;49.012;8.610;2022-08-02T06:01:44;19.20;99.90
25320;DHT22;13256;49.012;8.610;2022-08-02T06:04:23;19.30;99.90
25320;DHT22;13256;49.012;8.610;2022-08-02T06:07:00;19.40;99.90
25320;DHT22;13256;49.012;8.610;2022-08-02T06:10:19;19.50;99.90
25320;DHT22;13256;49.012;8.610;2022-08-02T06:13:08;19.60;99.90
25320;DHT22;13256;49.012;8.610;2022-08-02T06:15:43;19.70;99.90
25320;DHT22;13256;49.012;8.610;2022-08-02T06:18:21;19.80;99.90
25320;DHT22;13256;49.012;8.610;2022-08-02T06:20:57;19.80;99.90
25320;DHT22;13256;49.012;8.610;2022-08-02T06:23:51;19.90;99.90
25320;DHT22;13256;49.012;8.610;2022-08-02T06:26:31;20.10;99.90
25320;DHT22;13256;49.012;8.610;2022-08-02T06:28:59;20.20;99.90
25320;DHT22;13256;49.012;8.610;2022-08-02T06:31:26;20.30;99.90
25320;DHT22;13256;49.012;8.610;2022-08-02T06:33:55;20.30;99.90
25320;DHT22;13256;49.012;8.610;2022-08-02T06:39:20;20.50;99.90
25320;DHT22;13256;49.012;8.610;2022-08-02T06:42:00;20.60;99.90
25320;DHT22;13256;49.012;8.610;2022-08-02T06:44:39;20.70;99.90
25320;DHT22;13256;49.012;8.610;2022-08-02T06:47:18;20.70;99.90
25320;DHT22;13256;49.012;8.610;2022-08-02T06:49:45;20.80;99.90
25320;DHT22;13256;49.012;8.610;2022-08-02T06:52:27;20.90;99.90
25320;DHT22;13256;49.012;8.610;2022-08-02T06:55:00;20.90;99.90
25320;DHT22;13256;49.012;8.610;2022-08-02T06:57:28;21.10;99.90
25320;DHT22;13256;49.012;8.610;2022-08-02T06:59:55;21.10;99.90
25320;DHT22;13256;49.012;8.610;2022-08-02T07:02:23;21.20;99.90
25320;DHT22;13256;49.012;8.610;2022-08-02T07:04:52;21.40;99.90
25320;DHT22;13256;49.012;8.610;2022-08-02T07:07:19;21.40;99.90
25320;DHT22;13256;49.012;8.610;2022-08-02T07:09:47;21.60;99.90
25320;DHT22;13256;49.012;8.610;2022-08-02T07:12:31;21.60;99.90
25320;DHT22;13256;49.012;8.610;2022-08-02T07:15:05;21.70;99.90
25320;DHT22;13256;49.012;8.610;2022-08-02T07:17:36;21.90;99.90
25320;DHT22;13256;49.012;8.610;2022-08-02T07:20:04;22.00;99.90
25320;DHT22;13256;49.012;8.610;2022-08-02T07:22:31;22.00;99.90
25320;DHT22;13256;49.012;8.610;2022-08-02T07:25:01;21.90;99.90
25320;DHT22;13256;49.012;8.610;2022-08-02T07:27:31;21.90;99.90
25320;DHT22;13256;49.012;8.610;2022-08-02T07:29:58;22.00;99.90
25320;DHT22;13256;49.012;8.610;2022-08-02T07:32:31;22.10;99.90
25320;DHT22;13256;49.012;8.610;2022-08-02T07:34:58;22.20;99.90
25320;DHT22;13256;49.012;8.610;2022-08-02T07:37:28;22.40;99.90
25320;DHT22;13256;49.012;8.610;2022-08-02T07:40:17;22.50;99.90
25320;DHT22;13256;49.012;8.610;2022-08-02T07:42:49;22.70;99.90
25320;DHT22;13256;49.012;8.610;2022-08-02T07:45:28;22.80;99.90
25320;DHT22;13256;49.012;8.610;2022-08-02T07:47:54;22.90;99.90
25320;DHT22;13256;49.012;8.610;2022-08-02T07:50:22;23.00;99.90
25320;DHT22;13256;49.012;8.610;2022-08-02T07:52:50;23.20;99.90
25320;DHT22;13256;49.012;8.610;2022-08-02T07:55:24;23.20;99.90
25320;DHT22;13256;49.012;8.610;2022-08-02T07:58:10;23.30;99.90
25320;DHT22;13256;49.012;8.610;2022-08-02T08:00:43;23.40;99.90
25320;DHT22;13256;49.012;8.610;2022-08-02T08:03:15;23.40;99.90
25320;DHT22;13256;49.012;8.610;2022-08-02T08:05:42;23.50;99.90
25320;DHT22;13256;49.012;8.610;2022-08-02T08:08:13;23.70;99.90
25320;DHT22;13256;49.012;8.610;2022-08-02T08:10:44;23.90;99.90
25320;DHT22;13256;49.012;8.610;2022-08-02T08:13:14;24.00;99.90
25320;DHT22;13256;49.012;8.610;2022-08-02T08:15:42;24.20;99.90
25320;DHT22;13256;49.012;8.610;2022-08-02T08:18:20;24.40;99.90
25320;DHT22;13256;49.012;8.610;2022-08-02T08:20:50;24.70;99.90
25320;DHT22;13256;49.012;8.610;2022-08-02T08:23:23;24.90;99.90
25320;DHT22;13256;49.012;8.610;2022-08-02T08:25:50;25.10;99.90
25320;DHT22;13256;49.012;8.610;2022-08-02T08:28:19;25.30;99.90
25320;DHT22;13256;49.012;8.610;2022-08-02T08:30:48;25.50;99.90
25320;DHT22;13256;49.012;8.610;2022-08-02T08:33:18;25.60;99.90
25320;DHT22;13256;49.012;8.610;2022-08-02T08:35:47;25.80;99.90
25320;DHT22;13256;49.012;8.610;2022-08-02T08:38:14;26.00;99.90
25320;DHT22;13256;49.012;8.610;2022-08-02T08:40:41;26.10;99.90
25320;DHT22;13256;49.012;8.610;2022-08-02T08:43:15;26.10;99.90
25320;DHT22;13256;49.012;8.610;2022-08-02T08:45:46;26.20;99.90
25320;DHT22;13256;49.012;8.610;2022-08-02T08:48:32;26.10;99.90
25320;DHT22;13256;49.012;8.610;2022-08-02T08:51:10;26.10;99.90
25320;DHT22;13256;49.012;8.610;2022-08-02T08:53:45;26.20;99.90
25320;DHT22;13256;49.012;8.610;2022-08-02T08:56:19;26.30;99.90
25320;DHT22;13256;49.012;8.610;2022-08-02T08:58:46;26.50;99.90
25320;DHT22;13256;49.012;8.610;2022-08-02T09:01:13;26.60;99.90
25320;DHT22;13256;49.012;8.610;2022-08-02T09:03:44;26.80;99.90
25320;DHT22;13256;49.012;8.610;2022-08-02T09:06:13;26.90;99.90
25320;DHT22;13256;49.012;8.610;2022-08-02T09:08:40;27.20;99.90
25320;DHT22;13256;49.012;8.610;2022-08-02T09:11:21;27.30;99.50
25320;DHT22;13256;49.012;8.610;2022-08-02T09:13:52;27.40;99.50
25320;DHT22;13256;49.012;8.610;2022-08-02T09:18:56;27.80;98.50
25320;DHT22;13256;49.012;8.610;2022-08-02T09:21:35;27.90;97.90
25320;DHT22;13256;49.012;8.610;2022-08-02T09:24:18;27.90;97.80
25320;DHT22;13256;49.012;8.610;2022-08-02T09:26:48;28.00;97.50
25320;DHT22;13256;49.012;8.610;2022-08-02T09:29:18;28.30;97.10
25320;DHT22;13256;49.012;8.610;2022-08-02T09:31:50;28.60;96.70
25320;DHT22;13256;49.012;8.610;2022-08-02T09:34:18;28.90;95.50
25320;DHT22;13256;49.012;8.610;2022-08-02T09:36:51;29.10;94.90
25320;DHT22;13256;49.012;8.610;2022-08-02T09:39:21;29.30;94.30
25320;DHT22;13256;49.012;8.610;2022-08-02T09:41:51;29.40;94.30
25320;DHT22;13256;49.012;8.610;2022-08-02T09:44:30;29.10;95.10
25320;DHT22;13256;49.012;8.610;2022-08-02T09:46:59;29.30;94.60
25320;DHT22;13256;49.012;8.610;2022-08-02T09:49:25;29.40;93.90
25320;DHT22;13256;49.012;8.610;2022-08-02T09:51:56;29.70;93.60
25320;DHT22;13256;49.012;8.610;2022-08-02T09:54:25;29.80;93.10
25320;DHT22;13256;49.012;8.610;2022-08-02T09:56:52;30.20;92.30
25320;DHT22;13256;49.012;8.610;2022-08-02T09:59:25;30.40;91.30
25320;DHT22;13256;49.012;8.610;2022-08-02T10:01:56;30.40;90.90
25320;DHT22;13256;49.012;8.610;2022-08-02T10:04:45;30.20;91.10
25320;DHT22;13256;49.012;8.610;2022-08-02T10:07:21;30.30;90.70
25320;DHT22;13256;49.012;8.610;2022-08-02T10:09:51;30.40;90.60
25320;DHT22;13256;49.012;8.610;2022-08-02T10:12:19;30.80;90.10
25320;DHT22;13256;49.012;8.610;2022-08-02T10:14:51;30.70;89.70
25320;DHT22;13256;49.012;8.610;2022-08-02T10:17:19;31.00;87.40
25320;DHT22;13256;49.012;8.610;2022-08-02T10:19:46;31.20;87.70
25320;DHT22;13256;49.012;8.610;2022-08-02T10:22:33;31.40;88.00
25320;DHT22;13256;49.012;8.610;2022-08-02T10:25:05;31.50;85.60
25320;DHT22;13256;49.012;8.610;2022-08-02T10:27:35;31.50;82.80
25320;DHT22;13256;49.012;8.610;2022-08-02T10:30:22;31.70;82.90
25320;DHT22;13256;49.012;8.610;2022-08-02T10:32:50;31.90;81.80
25320;DHT22;13256;49.012;8.610;2022-08-02T10:35:22;32.20;80.50
25320;DHT22;13256;49.012;8.610;2022-08-02T10:37:57;32.10;78.70
25320;DHT22;13256;49.012;8.610;2022-08-02T10:49:07;31.70;76.30
25320;DHT22;13256;49.012;8.610;2022-08-02T10:54:41;31.60;77.00
25320;DHT22;13256;49.012;8.610;2022-08-02T10:59:51;31.60;75.80
25320;DHT22;13256;49.012;8.610;2022-08-02T11:05:28;32.30;71.50
25320;DHT22;13256;49.012;8.610;2022-08-02T11:08:26;31.70;72.30
25320;DHT22;13256;49.012;8.610;2022-08-02T11:10:58;31.40;72.70
25320;DHT22;13256;49.012;8.610;2022-08-02T11:14:00;31.50;73.80
25320;DHT22;13256;49.012;8.610;2022-08-02T11:19:34;32.50;72.50
25320;DHT22;13256;49.012;8.610;2022-08-02T11:22:23;32.90;71.40
25320;DHT22;13256;49.012;8.610;2022-08-02T11:24:56;33.50;69.80
25320;DHT22;13256;49.012;8.610;2022-08-02T11:27:23;33.80;69.40
25320;DHT22;13256;49.012;8.610;2022-08-02T11:29:54;33.90;68.80
25320;DHT22;13256;49.012;8.610;2022-08-02T11:32:28;33.90;68.20
25320;DHT22;13256;49.012;8.610;2022-08-02T11:34:57;33.90;67.20
25320;DHT22;13256;49.012;8.610;2022-08-02T11:37:33;34.10;67.10
25320;DHT22;13256;49.012;8.610;2022-08-02T11:40:36;34.30;66.20
25320;DHT22;13256;49.012;8.610;2022-08-02T11:43:18;34.40;64.20
25320;DHT22;13256;49.012;8.610;2022-08-02T11:45:46;34.50;63.60
25320;DHT22;13256;49.012;8.610;2022-08-02T11:48:13;34.70;63.40
25320;DHT22;13256;49.012;8.610;2022-08-02T11:50:40;34.90;63.10
25320;DHT22;13256;49.012;8.610;2022-08-02T11:53:14;34.50;59.20
25320;DHT22;13256;49.012;8.610;2022-08-02T11:55:44;34.20;61.00
25320;DHT22;13256;49.012;8.610;2022-08-02T11:58:11;33.50;60.10
25320;DHT22;13256;49.012;8.610;2022-08-02T12:00:40;33.40;61.50
25320;DHT22;13256;49.012;8.610;2022-08-02T12:03:17;33.40;61.10
25320;DHT22;13256;49.012;8.610;2022-08-02T12:05:49;33.40;63.40
25320;DHT22;13256;49.012;8.610;2022-08-02T12:08:36;34.00;60.70
25320;DHT22;13256;49.012;8.610;2022-08-02T12:11:06;34.50;60.80
25320;DHT22;13256;49.012;8.610;2022-08-02T12:13:44;34.80;59.30
25320;DHT22;13256;49.012;8.610;2022-08-02T12:16:39;34.60;56.60
25320;DHT22;13256;49.012;8.610;2022-08-02T12:19:25;33.80;57.20
25320;DHT22;13256;49.012;8.610;2022-08-02T12:24:38;32.90;59.40
25320;DHT22;13256;49.012;8.610;2022-08-02T12:27:09;33.20;60.10
25320;DHT22;13256;49.012;8.610;2022-08-02T12:30:02;33.90;60.80
25320;DHT22;13256;49.012;8.610;2022-08-02T12:33:07;34.50;57.70
25320;DHT22;13256;49.012;8.610;2022-08-02T12:35:39;34.90;57.10
25320;DHT22;13256;49.012;8.610;2022-08-02T12:38:10;34.80;56.90
25320;DHT22;13256;49.012;8.610;2022-08-02T12:40:38;35.20;56.60
25320;DHT22;13256;49.012;8.610;2022-08-02T12:43:17;35.20;55.80
25320;DHT22;13256;49.012;8.610;2022-08-02T12:45:57;35.40;56.30
25320;DHT22;13256;49.012;8.610;2022-08-02T12:48:38;35.30;56.50
25320;DHT22;13256;49.012;8.610;2022-08-02T12:51:30;35.20;57.10
25320;DHT22;13256;49.012;8.610;2022-08-02T12:54:27;35.10;55.80
25320;DHT22;13256;49.012;8.610;2022-08-02T12:57:18;35.10;55.70
25320;DHT22;13256;49.012;8.610;2022-08-02T12:59:52;35.20;54.80
25320;DHT22;13256;49.012;8.610;2022-08-02T13:02:23;35.50;54.50
25320;DHT22;13256;49.012;8.610;2022-08-02T13:04:50;35.90;55.20
25320;DHT22;13256;49.012;8.610;2022-08-02T13:07:20;36.00;54.30
25320;DHT22;13256;49.012;8.610;2022-08-02T13:09:47;36.40;53.10
25320;DHT22;13256;49.012;8.610;2022-08-02T13:12:15;36.10;53.80
25320;DHT22;13256;49.012;8.610;2022-08-02T13:14:43;36.30;54.20
25320;DHT22;13256;49.012;8.610;2022-08-02T13:17:11;36.30;51.60
25320;DHT22;13256;49.012;8.610;2022-08-02T13:19:40;36.00;51.60
25320;DHT22;13256;49.012;8.610;2022-08-02T13:22:11;35.40;53.50
25320;DHT22;13256;49.012;8.610;2022-08-02T13:24:38;35.50;53.20
25320;DHT22;13256;49.012;8.610;2022-08-02T13:27:22;35.70;52.60
25320;DHT22;13256;49.012;8.610;2022-08-02T13:29:53;35.70;52.10
25320;DHT22;13256;49.012;8.610;2022-08-02T13:32:22;35.90;51.10
25320;DHT22;13256;49.012;8.610;2022-08-02T13:34:49;36.20;51.00
25320;DHT22;13256;49.012;8.610;2022-08-02T13:37:16;36.20;49.60
25320;DHT22;13256;49.012;8.610;2022-08-02T13:39:43;35.70;50.70
25320;DHT22;13256;49.012;8.610;2022-08-02T13:42:30;35.80;51.70
25320;DHT22;13256;49.012;8.610;2022-08-02T13:44:59;36.10;51.20
25320;DHT22;13256;49.012;8.610;2022-08-02T13:47:27;36.20;52.00
25320;DHT22;13256;49.012;8.610;2022-08-02T13:50:16;36.30;52.00
25320;DHT22;13256;49.012;8.610;2022-08-02T13:52:42;36.50;51.70
25320;DHT22;13256;49.012;8.610;2022-08-02T13:55:19;36.80;51.70
25320;DHT22;13256;49.012;8.610;2022-08-02T13:57:45;37.00;50.00
25320;DHT22;13256;49.012;8.610;2022-08-02T14:00:23;37.10;49.60
25320;DHT22;13256;49.012;8.610;2022-08-02T14:03:07;37.30;49.20
25320;DHT22;13256;49.012;8.610;2022-08-02T14:05:37;37.00;49.40
25320;DHT22;13256;49.012;8.610;2022-08-02T14:08:17;37.00;49.10
25320;DHT22;13256;49.012;8.610;2022-08-02T14:10:47;37.10;49.20
25320;DHT22;13256;49.012;8.610;2022-08-02T14:13:15;37.10;48.60
25320;DHT22;13256;49.012;8.610;2022-08-02T14:15:42;36.70;48.40
25320;DHT22;13256;49.012;8.610;2022-08-02T14:18:11;36.60;49.30
25320;DHT22;13256;49.012;8.610;2022-08-02T14:20:40;36.90;49.50
25320;DHT22;13256;49.012;8.610;2022-08-02T14:23:09;36.90;48.40
25320;DHT22;13256;49.012;8.610;2022-08-02T14:25:36;37.00;48.20
25320;DHT22;13256;49.012;8.610;2022-08-02T14:28:18;37.10;48.70
25320;DHT22;13256;49.012;8.610;2022-08-02T14:30:51;37.20;48.10
25320;DHT22;13256;49.012;8.610;2022-08-02T14:33:18;37.30;47.90
25320;DHT22;13256;49.012;8.610;2022-08-02T14:44:53;37.30;47.70
25320;DHT22;13256;49.012;8.610;2022-08-02T14:47:22;36.80;47.90
25320;DHT22;13256;49.012;8.610;2022-08-02T14:49:49;36.60;49.00
25320;DHT22;13256;49.012;8.610;2022-08-02T14:52:26;36.70;48.90
25320;DHT22;13256;49.012;8.610;2022-08-02T14:54:53;36.80;49.00
25320;DHT22;13256;49.012;8.610;2022-08-02T14:57:21;36.40;48.80
25320;DHT22;13256;49.012;8.610;2022-08-02T14:59:51;36.50;49.90
25320;DHT22;13256;49.012;8.610;2022-08-02T15:02:26;36.60;47.80
25320;DHT22;13256;49.012;8.610;2022-08-02T15:04:55;36.40;48.50
25320;DHT22;13256;49.012;8.610;2022-08-02T15:07:24;35.80;48.70
25320;DHT22;13256;49.012;8.610;2022-08-02T15:09:55;35.70;50.90
25320;DHT22;13256;49.012;8.610;2022-08-02T15:12:22;35.80;49.30
25320;DHT22;13256;49.012;8.610;2022-08-02T15:14:53;35.70;49.80
25320;DHT22;13256;49.012;8.610;2022-08-02T15:17:22;35.90;50.00
25320;DHT22;13256;49.012;8.610;2022-08-02T15:19:49;36.00;49.90
25320;DHT22;13256;49.012;8.610;2022-08-02T15:22:28;35.70;50.10
25320;DHT22;13256;49.012;8.610;2022-08-02T15:24:55;35.70;49.70
25320;DHT22;13256;49.012;8.610;2022-08-02T15:27:22;35.80;49.90
25320;DHT22;13256;49.012;8.610;2022-08-02T15:29:49;35.60;49.40
25320;DHT22;13256;49.012;8.610;2022-08-02T15:32:18;35.30;50.20
25320;DHT22;13256;49.012;8.610;2022-08-02T15:34:46;34.90;50.40
25320;DHT22;13256;49.012;8.610;2022-08-02T15:37:46;34.50;50.60
25320;DHT22;13256;49.012;8.610;2022-08-02T15:40:13;34.50;50.40
25320;DHT22;13256;49.012;8.610;2022-08-02T15:42:40;34.50;50.50
25320;DHT22;13256;49.012;8.610;2022-08-02T15:45:13;34.40;49.90
25320;DHT22;13256;49.012;8.610;2022-08-02T15:47:46;34.00;50.30
25320;DHT22;13256;49.012;8.610;2022-08-02T15:50:17;33.90;51.20
25320;DHT22;13256;49.012;8.610;2022-08-02T15:52:44;33.80;51.90
25320;DHT22;13256;49.012;8.610;2022-08-02T15:55:12;33.80;51.20
25320;DHT22;13256;49.012;8.610;2022-08-02T15:57:45;33.70;50.40
25320;DHT22;13256;49.012;8.610;2022-08-02T16:00:14;33.50;52.10
25320;DHT22;13256;49.012;8.610;2022-08-02T16:02:45;33.30;51.90
25320;DHT22;13256;49.012;8.610;2022-08-02T16:05:15;33.20;52.10
25320;DHT22;13256;49.012;8.610;2022-08-02T16:07:45;33.10;51.80
25320;DHT22;13256;49.012;8.610;2022-08-02T16:10:13;33.10;51.40
25320;DHT22;13256;49.012;8.610;2022-08-02T16:12:40;33.00;51.80
25320;DHT22;13256;49.012;8.610;2022-08-02T16:15:15;33.00;51.20
25320;DHT22;13256;49.012;8.610;2022-08-02T16:17:42;33.00;51.40
25320;DHT22;13256;49.012;8.610;2022-08-02T16:20:21;32.70;51.50
25320;DHT22;13256;49.012;8.610;2022-08-02T16:22:49;32.50;52.90
25320;DHT22;13256;49.012;8.610;2022-08-02T16:25:17;32.40;52.70
25320;DHT22;13256;49.012;8.610;2022-08-02T16:27:44;32.30;53.40
25320;DHT22;13256;49.012;8.610;2022-08-02T16:30:32;32.20;53.00
25320;DHT22;13256;49.012;8.610;2022-08-02T16:33:01;32.20;53.20
25320;DHT22;13256;49.012;8.610;2022-08-02T16:35:33;32.20;53.20
25320;DHT22;13256;49.012;8.610;2022-08-02T16:38:00;32.20;53.10
25320;DHT22;13256;49.012;8.610;2022-08-02T16:40:27;32.00;53.10
25320;DHT22;13256;49.012;8.610;2022-08-02T16:42:54;32.00;53.10
25320;DHT22;13256;49.012;8.610;2022-08-02T16:45:23;32.00;53.40
25320;DHT22;13256;49.012;8.610;2022-08-02T16:47:50;31.90;54.30
25320;DHT22;13256;49.012;8.610;2022-08-02T16:50:24;31.90;53.50
25320;DHT22;13256;49.012;8.610;2022-08-02T16:52:55;31.80;53.50
25320;DHT22;13256;49.012;8.610;2022-08-02T16:55:24;31.70;53.60
25320;DHT22;13256;49.012;8.610;2022-08-02T16:57:53;31.70;53.70
25320;DHT22;13256;49.012;8.610;2022-08-02T17:00:25;31.60;53.60
25320;DHT22;13256;49.012;8.610;2022-08-02T17:02:52;31.40;54.10
25320;DHT22;13256;49.012;8.610;2022-08-02T17:05:21;31.30;54.30